Time;durP1;ratioP1;P1;durP2;ratioP2;P2;SDS_P1;SDS_P2;PMS_P1;PMS_P2;Temp;Humidity;BMP_temperature;BMP_pressure;BME280_temperature;BME280_humidity;BME280_pressure;Samples;Min_cycle;Max_cycle;Signal;HPM_P1;HPM_P2
2021/08/24 00:00:28;;;;;;;37.92;17.88;;;;;;;;;;5053074;28;20029;-76
2021/08/24 00:02:54;;;;;;;52.40;19.30;;;;;;;;;;5053022;28;20037;-76
2021/08/24 00:05:22;;;;;;;53.15;19.90;;;;;;;;;;5035002;28;20523;-76
2021/08/24 00:07:48;;;;;;;37.15;16.90;;;;;;;;;;5053218;28;20024;-75
2021/08/24 00:10:13;;;;;;;51.40;18.58;;;;;;;;;;5052737;28;20508;-76
2021/08/24 00:12:38;;;;;;;40.75;17.05;;;;;;;;;;5052641;28;20057;-76
2021/08/24 00:15:05;;;;;;;46.83;18.50;;;;;;;;;;5052965;28;20021;-76
2021/08/24 00:17:30;;;;;;;46.30;16.95;;;;;;;;;;5052385;28;20542;-75
2021/08/24 00:19:55;;;;;;;50.22;17.35;;;;;;;;;;5053239;28;20119;-75
2021/08/24 00:22:20;;;;;;;43.28;15.98;;;;;;;;;;5052599;28;20017;-76
2021/08/24 00:24:46;;;;;;;40.83;16.02;;;;;;;;;;5052950;28;20150;-76
2021/08/24 00:27:11;;;;;;;40.55;16.15;;;;;;;;;;5052812;28;20060;-76
2021/08/24 00:29:36;;;;;;;34.78;16.23;;;;;;;;;;5052906;28;20017;-76
2021/08/24 00:32:02;;;;;;;40.63;16.95;;;;;;;;;;5050605;28;20056;-76
2021/08/24 00:34:27;;;;;;;49.20;17.23;;;;;;;;;;5051252;28;20029;-76
2021/08/24 00:36:52;;;;;;;49.55;17.30;;;;;;;;;;5052479;28;20028;-76
2021/08/24 00:39:17;;;;;;;41.50;15.27;;;;;;;;;;5052508;28;20466;-76
2021/08/24 00:41:43;;;;;;;36.40;14.52;;;;;;;;;;5051604;28;20083;-76
2021/08/24 00:44:08;;;;;;;31.40;12.65;;;;;;;;;;5052724;28;20502;-77
2021/08/24 00:46:50;;;;;;;45.53;16.13;;;;;;;;;;5052670;28;20033;-75
2021/08/24 00:49:20;;;;;;;27.80;13.73;;;;;;;;;;5052756;28;20032;-76
2021/08/24 00:51:47;;;;;;;35.90;14.73;;;;;;;;;;5052449;28;20144;-75
2021/08/24 00:54:16;;;;;;;40.50;16.20;;;;;;;;;;5051914;28;20420;-75
2021/08/24 00:56:44;;;;;;;41.25;16.00;;;;;;;;;;5052945;28;20040;-75
2021/08/24 00:59:09;;;;;;;29.77;13.25;;;;;;;;;;5052385;28;20128;-76
2021/08/24 01:01:35;;;;;;;36.10;14.43;;;;;;;;;;5052642;28;20103;-76
2021/08/24 01:04:00;;;;;;;44.33;15.15;;;;;;;;;;5052434;28;20029;-76
2021/08/24 01:06:34;;;;;;;36.78;14.70;;;;;;;;;;5052301;28;20116;-75
2021/08/24 01:09:18;;;;;;;32.15;13.38;;;;;;;;;;5052634;28;20017;-76
2021/08/24 01:11:50;;;;;;;33.17;13.55;;;;;;;;;;5052432;28;20053;-76
2021/08/24 01:14:36;;;;;;;43.85;14.38;;;;;;;;;;5052538;28;20021;-76
2021/08/24 01:17:01;;;;;;;;;;;;;;;;;;5052657;28;20047;-76
2021/08/24 01:20:05;;;;;;;36.10;13.27;;;;;;;;;;5052185;28;19912;-76
2021/08/24 01:22:31;;;;;;;45.05;14.63;;;;;;;;;;4970981;28;20098;-76
2021/08/24 01:24:59;;;;;;;30.63;13.75;;;;;;;;;;4971364;28;20026;-76
2021/08/24 01:27:30;;;;;;;32.55;13.90;;;;;;;;;;5009608;28;20123;-76
2021/08/24 01:30:14;;;;;;;24.13;10.75;;;;;;;;;;5052358;28;20040;-75
2021/08/24 01:32:58;;;;;;;37.00;14.35;;;;;;;;;;5052047;28;20107;-75
2021/08/24 01:35:45;;;;;;;30.38;13.75;;;;;;;;;;5052048;28;20072;-77
2021/08/24 01:38:19;;;;;;;35.45;14.10;;;;;;;;;;5052064;28;20167;-77
2021/08/24 01:41:03;;;;;;;28.65;12.65;;;;;;;;;;5051842;28;20029;-76
2021/08/24 01:43:39;;;;;;;28.10;12.63;;;;;;;;;;5051832;28;20432;-75
2021/08/24 01:46:09;;;;;;;35.25;13.90;;;;;;;;;;5053424;28;20185;-77
2021/08/24 01:48:37;;;;;;;34.95;13.10;;;;;;;;;;5037916;28;20036;-75
2021/08/24 01:51:13;;;;;;;27.70;12.82;;;;;;;;;;5055723;28;20021;-76
2021/08/24 01:53:45;;;;;;;29.70;12.70;;;;;;;;;;5055740;28;20025;-76
2021/08/24 01:56:13;;;;;;;35.42;13.35;;;;;;;;;;5055400;28;20495;-77
2021/08/24 01:58:44;;;;;;;33.15;13.05;;;;;;;;;;5055636;28;20083;-76
2021/08/24 02:01:11;;;;;;;36.72;13.10;;;;;;;;;;5055105;28;20114;-77
2021/08/24 02:03:38;;;;;;;35.00;12.80;;;;;;;;;;5055026;28;20473;-76
2021/08/24 02:06:27;;;;;;;47.42;14.63;;;;;;;;;;5055295;28;20029;-76
2021/08/24 02:08:55;;;;;;;30.35;13.18;;;;;;;;;;5044096;28;20052;-76
2021/08/24 02:11:21;;;;;;;36.00;13.57;;;;;;;;;;5055223;28;20029;-76
2021/08/24 02:13:48;;;;;;;39.90;15.30;;;;;;;;;;5055095;28;20520;-76
2021/08/24 02:16:22;;;;;;;38.38;14.32;;;;;;;;;;5055249;28;20024;-76
2021/08/24 02:19:08;;;;;;;36.15;16.00;;;;;;;;;;5054841;28;20170;-77
2021/08/24 02:21:54;;;;;;;32.63;14.23;;;;;;;;;;5054175;28;20051;-76
2021/08/24 02:24:22;;;;;;;33.90;12.98;;;;;;;;;;5053688;28;20118;-76
2021/08/24 02:26:48;;;;;;;30.60;14.35;;;;;;;;;;5054858;28;20033;-76
2021/08/24 02:29:14;;;;;;;36.80;14.38;;;;;;;;;;5054585;28;20497;-77
2021/08/24 02:31:42;;;;;;;29.40;13.35;;;;;;;;;;5054300;28;20052;-76
2021/08/24 02:34:13;;;;;;;36.40;14.77;;;;;;;;;;5054784;28;20029;-76
2021/08/24 02:36:40;;;;;;;32.83;13.23;;;;;;;;;;5054835;28;20461;-76
2021/08/24 02:39:10;;;;;;;26.30;13.15;;;;;;;;;;5054530;28;20041;-76
2021/08/24 02:41:50;;;;;;;36.80;13.77;;;;;;;;;;5054465;28;20037;-76
2021/08/24 02:44:22;;;;;;;30.58;13.13;;;;;;;;;;5054598;28;20051;-76
2021/08/24 02:46:52;;;;;;;42.67;13.82;;;;;;;;;;5054477;28;20037;-76
2021/08/24 02:49:20;;;;;;;43.72;14.98;;;;;;;;;;5054337;28;20472;-77
2021/08/24 02:51:46;;;;;;;33.55;14.00;;;;;;;;;;5054343;28;20436;-76
2021/08/24 02:54:24;;;;;;;35.80;13.98;;;;;;;;;;5054409;28;20100;-77
2021/08/24 02:56:49;;;;;;;40.53;14.57;;;;;;;;;;5053879;28;20029;-76
2021/08/24 02:59:14;;;;;;;28.58;13.25;;;;;;;;;;5053924;28;20152;-77
2021/08/24 03:01:40;;;;;;;42.22;15.45;;;;;;;;;;5054422;28;20017;-76
2021/08/24 03:04:07;;;;;;;39.90;14.25;;;;;;;;;;5054194;28;20025;-77
2021/08/24 03:06:35;;;;;;;33.30;15.20;;;;;;;;;;5054117;28;20107;-76
2021/08/24 03:09:00;;;;;;;53.88;16.13;;;;;;;;;;5054223;28;20024;-75
2021/08/24 03:11:28;;;;;;;37.63;15.55;;;;;;;;;;5054172;28;20495;-76
2021/08/24 03:13:53;;;;;;;38.90;15.52;;;;;;;;;;5054178;28;20033;-76
2021/08/24 03:16:21;;;;;;;35.28;14.90;;;;;;;;;;5053924;28;20074;-76
2021/08/24 03:18:49;;;;;;;38.10;17.50;;;;;;;;;;5054407;28;20052;-76
2021/08/24 03:21:17;;;;;;;48.72;16.65;;;;;;;;;;5053552;28;20047;-76
2021/08/24 03:23:43;;;;;;;38.38;16.38;;;;;;;;;;5036080;28;20044;-76
2021/08/24 03:26:09;;;;;;;39.08;15.25;;;;;;;;;;5054058;28;20036;-76
2021/08/24 03:28:37;;;;;;;41.53;15.57;;;;;;;;;;5054007;28;20029;-77
2021/08/24 03:31:02;;;;;;;44.15;15.60;;;;;;;;;;5053712;28;20045;-78
2021/08/24 03:33:27;;;;;;;34.10;15.02;;;;;;;;;;5053765;28;20380;-77
2021/08/24 03:35:53;;;;;;;35.17;14.93;;;;;;;;;;5053864;28;20449;-76
2021/08/24 03:38:18;;;;;;;39.80;15.27;;;;;;;;;;5053419;28;20529;-76
2021/08/24 03:40:43;;;;;;;30.27;14.30;;;;;;;;;;5053492;28;20032;-77
2021/08/24 03:43:09;;;;;;;40.92;15.27;;;;;;;;;;5053146;28;20277;-77
2021/08/24 03:45:34;;;;;;;45.85;16.52;;;;;;;;;;5053373;28;20061;-76
2021/08/24 03:47:59;;;;;;;33.67;14.40;;;;;;;;;;5053162;28;20041;-76
2021/08/24 03:50:25;;;;;;;42.67;14.85;;;;;;;;;;5053327;28;20033;-77
2021/08/24 03:52:50;;;;;;;34.38;14.50;;;;;;;;;;5053184;28;20511;-76
2021/08/24 03:55:16;;;;;;;53.85;16.73;;;;;;;;;;5053436;28;20061;-78
2021/08/24 03:57:42;;;;;;;40.35;14.20;;;;;;;;;;5053323;28;20143;-77
2021/08/24 04:00:07;;;;;;;39.92;14.73;;;;;;;;;;5052986;28;20529;-76
2021/08/24 04:02:32;;;;;;;42.05;15.73;;;;;;;;;;5053055;28;20042;-77
2021/08/24 04:05:01;;;;;;;42.55;15.82;;;;;;;;;;5053122;28;20466;-77
2021/08/24 04:07:27;;;;;;;52.60;16.70;;;;;;;;;;5052914;28;20070;-77
2021/08/24 04:09:52;;;;;;;58.38;17.23;;;;;;;;;;5052410;28;20025;-77
2021/08/24 04:12:17;;;;;;;36.83;15.18;;;;;;;;;;5053069;28;20037;-76
2021/08/24 04:14:43;;;;;;;31.10;13.35;;;;;;;;;;5053179;28;20373;-78
2021/08/24 04:17:08;;;;;;;38.67;14.13;;;;;;;;;;5053023;28;20037;-78
2021/08/24 04:19:34;;;;;;;31.50;13.23;;;;;;;;;;5052699;28;20073;-77
2021/08/24 04:21:59;;;;;;;31.02;13.85;;;;;;;;;;5052709;28;20462;-77
2021/08/24 04:24:24;;;;;;;42.88;16.58;;;;;;;;;;5052769;28;20032;-77
2021/08/24 04:26:50;;;;;;;32.35;14.05;;;;;;;;;;5052749;28;20055;-77
2021/08/24 04:29:15;;;;;;;32.58;13.25;;;;;;;;;;5052726;28;20021;-78
2021/08/24 04:31:40;;;;;;;40.10;13.55;;;;;;;;;;5052581;28;20531;-76
2021/08/24 04:34:06;;;;;;;33.53;11.98;;;;;;;;;;5052632;28;20132;-77
2021/08/24 04:36:31;;;;;;;33.40;12.77;;;;;;;;;;5052304;28;20021;-77
2021/08/24 04:38:57;;;;;;;39.53;13.55;;;;;;;;;;5052428;28;20041;-77
2021/08/24 04:41:22;;;;;;;31.25;13.35;;;;;;;;;;5052305;28;20475;-77
2021/08/24 04:43:47;;;;;;;44.38;14.52;;;;;;;;;;5034637;28;20025;-77
2021/08/24 04:46:13;;;;;;;40.35;15.27;;;;;;;;;;5052583;28;20123;-77
2021/08/24 04:48:38;;;;;;;33.50;12.23;;;;;;;;;;5051750;28;20076;-78
2021/08/24 04:51:03;;;;;;;34.75;13.10;;;;;;;;;;5052282;28;20067;-78
2021/08/24 04:53:29;;;;;;;43.30;14.07;;;;;;;;;;5052598;28;20065;-77
2021/08/24 04:55:55;;;;;;;31.67;12.60;;;;;;;;;;5052681;28;20123;-77
2021/08/24 04:58:20;;;;;;;28.95;12.10;;;;;;;;;;5052462;28;20109;-77
2021/08/24 05:00:45;;;;;;;45.88;14.98;;;;;;;;;;5052316;28;20079;-78
2021/08/24 05:03:11;;;;;;;40.80;14.30;;;;;;;;;;5034408;28;20060;-77
2021/08/24 05:05:36;;;;;;;36.38;14.55;;;;;;;;;;5052541;28;20476;-78
2021/08/24 05:08:01;;;;;;;71.90;17.77;;;;;;;;;;5052400;28;20055;-77
2021/08/24 05:10:26;;;;;;;46.50;14.98;;;;;;;;;;5052338;28;20075;-78
2021/08/24 05:12:52;;;;;;;48.80;14.55;;;;;;;;;;5052364;28;20036;-77
2021/08/24 05:15:18;;;;;;;42.70;14.02;;;;;;;;;;5052362;28;20022;-77
2021/08/24 05:17:46;;;;;;;53.22;15.75;;;;;;;;;;5052207;28;20029;-77
2021/08/24 05:20:11;;;;;;;49.25;15.32;;;;;;;;;;5054228;28;20025;-77
2021/08/24 05:22:37;;;;;;;33.60;13.32;;;;;;;;;;5056026;28;20148;-78
2021/08/24 05:25:02;;;;;;;38.13;12.88;;;;;;;;;;5056448;28;20380;-77
2021/08/24 05:27:28;;;;;;;40.50;13.10;;;;;;;;;;5056302;28;20021;-78
2021/08/24 05:29:53;;;;;;;33.45;12.43;;;;;;;;;;5055885;28;20037;-77
2021/08/24 05:32:18;;;;;;;35.00;13.38;;;;;;;;;;5055831;28;20133;-78
2021/08/24 05:34:44;;;;;;;32.45;13.25;;;;;;;;;;5056062;28;20079;-77
2021/08/24 05:37:09;;;;;;;29.88;12.75;;;;;;;;;;5056455;28;20419;-77
2021/08/24 05:39:35;;;;;;;37.30;14.15;;;;;;;;;;5055729;28;20047;-78
2021/08/24 05:42:01;;;;;;;44.30;15.73;;;;;;;;;;5055450;28;20102;-78
2021/08/24 05:44:26;;;;;;;34.70;12.15;;;;;;;;;;5055952;28;20455;-77
2021/08/24 05:46:51;;;;;;;34.85;12.73;;;;;;;;;;5055644;28;20033;-77
2021/08/24 05:49:17;;;;;;;36.10;13.45;;;;;;;;;;5055682;28;20062;-78
2021/08/24 05:51:42;;;;;;;27.95;12.50;;;;;;;;;;5055594;28;20355;-77
2021/08/24 05:54:07;;;;;;;24.13;10.93;;;;;;;;;;5055574;28;20144;-77
2021/08/24 05:56:33;;;;;;;28.75;12.40;;;;;;;;;;5055652;28;20027;-77
2021/08/24 05:58:58;;;;;;;30.65;12.43;;;;;;;;;;5055469;28;20041;-78
2021/08/24 06:01:25;;;;;;;37.17;13.63;;;;;;;;;;5055440;28;20029;-77
2021/08/24 06:03:50;;;;;;;21.13;9.45;;;;;;;;;;5055157;28;20465;-78
2021/08/24 06:06:21;;;;;;;21.77;9.85;;;;;;;;;;5055277;28;20091;-78
2021/08/24 06:08:47;;;;;;;21.80;11.35;;;;;;;;;;5055341;28;20472;-77
2021/08/24 06:11:19;;;;;;;19.98;9.20;;;;;;;;;;5055312;28;20028;-77
2021/08/24 06:13:45;;;;;;;18.10;10.13;;;;;;;;;;5055608;28;20115;-77
2021/08/24 06:16:10;;;;;;;29.23;12.02;;;;;;;;;;5055168;28;20113;-77
2021/08/24 06:18:37;;;;;;;30.60;12.10;;;;;;;;;;5054889;28;20043;-78
2021/08/24 06:21:02;;;;;;;25.17;9.13;;;;;;;;;;5055303;28;20092;-77
2021/08/24 06:23:28;;;;;;;25.35;10.25;;;;;;;;;;5054970;28;20465;-76
2021/08/24 06:25:53;;;;;;;28.95;10.80;;;;;;;;;;5055016;28;20021;-77
2021/08/24 06:28:18;;;;;;;29.05;9.63;;;;;;;;;;5055007;28;20111;-78
2021/08/24 06:30:44;;;;;;;17.42;7.90;;;;;;;;;;5054035;28;20081;-77
2021/08/24 06:33:09;;;;;;;21.45;8.82;;;;;;;;;;5051789;28;20074;-78
2021/08/24 06:35:35;;;;;;;17.75;6.80;;;;;;;;;;5054338;28;20025;-78
2021/08/24 06:38:00;;;;;;;18.25;7.03;;;;;;;;;;5054368;28;20029;-78
2021/08/24 06:40:25;;;;;;;16.55;7.22;;;;;;;;;;5053960;28;20098;-78
2021/08/24 06:42:52;;;;;;;19.23;7.20;;;;;;;;;;5053478;28;20052;-77
2021/08/24 06:45:20;;;;;;;15.10;6.38;;;;;;;;;;5036730;28;20833;-77
2021/08/24 06:47:45;;;;;;;14.48;7.45;;;;;;;;;;5054186;28;20025;-77
2021/08/24 06:50:11;;;;;;;14.85;7.05;;;;;;;;;;5036151;28;20078;-78
2021/08/24 06:52:36;;;;;;;14.88;6.18;;;;;;;;;;5054025;28;20029;-78
2021/08/24 06:55:02;;;;;;;18.30;6.90;;;;;;;;;;5053757;28;20369;-77
2021/08/24 06:57:27;;;;;;;17.05;7.18;;;;;;;;;;5053437;28;20033;-78
2021/08/24 06:59:52;;;;;;;17.30;6.85;;;;;;;;;;5054340;28;20029;-79
2021/08/24 07:02:17;;;;;;;15.05;6.88;;;;;;;;;;5053363;28;20024;-78
2021/08/24 07:04:47;;;;;;;13.98;5.88;;;;;;;;;;5053859;28;20052;-78
2021/08/24 07:07:13;;;;;;;15.50;7.68;;;;;;;;;;5053936;28;20029;-77
2021/08/24 07:09:38;;;;;;;12.63;6.18;;;;;;;;;;5053862;28;20108;-77
2021/08/24 07:12:03;;;;;;;9.93;6.30;;;;;;;;;;5053313;28;20527;-78
2021/08/24 07:14:28;;;;;;;18.92;7.40;;;;;;;;;;5053509;28;20104;-77
2021/08/24 07:16:54;;;;;;;10.48;6.47;;;;;;;;;;5053867;28;20013;-79
2021/08/24 07:19:19;;;;;;;17.73;6.90;;;;;;;;;;5053929;28;20045;-78
2021/08/24 07:21:45;;;;;;;11.20;4.75;;;;;;;;;;5053705;28;20380;-77
2021/08/24 07:24:10;;;;;;;12.60;5.22;;;;;;;;;;5053950;28;20017;-77
2021/08/24 07:26:35;;;;;;;16.08;5.22;;;;;;;;;;5053678;28;20389;-77
2021/08/24 07:29:00;;;;;;;11.30;4.60;;;;;;;;;;5054021;28;20040;-77
2021/08/24 07:31:28;;;;;;;7.53;4.47;;;;;;;;;;5053272;28;20053;-78
2021/08/24 07:33:53;;;;;;;12.50;5.38;;;;;;;;;;5053403;28;20021;-77
2021/08/24 07:36:19;;;;;;;9.32;4.30;;;;;;;;;;5053555;28;20040;-78
2021/08/24 07:38:44;;;;;;;10.20;4.45;;;;;;;;;;5053480;28;20061;-77
2021/08/24 07:41:10;;;;;;;11.88;4.80;;;;;;;;;;5053474;28;20102;-77
2021/08/24 07:43:36;;;;;;;9.75;4.20;;;;;;;;;;5053248;28;20077;-77
2021/08/24 07:46:01;;;;;;;10.57;3.72;;;;;;;;;;5048986;28;20112;-77
2021/08/24 07:48:28;;;;;;;7.53;3.47;;;;;;;;;;5046852;28;20032;-78
2021/08/24 07:50:53;;;;;;;10.07;3.95;;;;;;;;;;5048897;28;20535;-78
2021/08/24 07:53:21;;;;;;;7.07;3.70;;;;;;;;;;5050689;28;20021;-77
2021/08/24 07:55:46;;;;;;;7.82;3.50;;;;;;;;;;5049876;28;20028;-80
2021/08/24 07:58:11;;;;;;;11.73;3.83;;;;;;;;;;5029213;28;20036;-77
2021/08/24 08:00:37;;;;;;;7.15;2.97;;;;;;;;;;5029267;28;20472;-78
2021/08/24 08:03:02;;;;;;;8.07;3.47;;;;;;;;;;5042209;28;20035;-77
2021/08/24 08:05:28;;;;;;;7.47;2.50;;;;;;;;;;5050038;28;20029;-78
2021/08/24 08:07:55;;;;;;;8.00;2.53;;;;;;;;;;5049287;28;20024;-77
2021/08/24 08:10:20;;;;;;;4.78;2.25;;;;;;;;;;5048952;28;20106;-77
2021/08/24 08:12:46;;;;;;;5.63;2.40;;;;;;;;;;5049209;28;20045;-79
2021/08/24 08:15:12;;;;;;;7.72;2.13;;;;;;;;;;5049320;28;20025;-77
2021/08/24 08:17:37;;;;;;;5.90;2.80;;;;;;;;;;5049062;28;20115;-79
2021/08/24 08:20:03;;;;;;;9.18;2.33;;;;;;;;;;5050214;28;20119;-78
2021/08/24 08:22:28;;;;;;;6.50;2.13;;;;;;;;;;5049297;28;20033;-78
2021/08/24 08:24:54;;;;;;;6.63;2.80;;;;;;;;;;5049148;28;20032;-78
2021/08/24 08:27:19;;;;;;;10.68;2.70;;;;;;;;;;5048752;28;20070;-79
2021/08/24 08:29:44;;;;;;;6.85;2.72;;;;;;;;;;5048469;28;20017;-78
2021/08/24 08:32:11;;;;;;;7.53;3.10;;;;;;;;;;5049339;28;20045;-78
2021/08/24 08:34:37;;;;;;;7.20;2.03;;;;;;;;;;5046778;28;20033;-79
2021/08/24 08:37:02;;;;;;;7.00;2.30;;;;;;;;;;5049813;28;20028;-79
2021/08/24 08:39:28;;;;;;;13.43;2.80;;;;;;;;;;5049414;28;20432;-77
2021/08/24 08:42:04;;;;;;;9.13;3.05;;;;;;;;;;5049714;28;20033;-78
2021/08/24 08:44:47;;;;;;;8.32;3.47;;;;;;;;;;5049736;28;20313;-78
2021/08/24 08:47:26;;;;;;;5.90;2.63;;;;;;;;;;5049524;28;20101;-78
2021/08/24 08:49:56;;;;;;;5.20;2.42;;;;;;;;;;5049992;28;20029;-77
2021/08/24 08:52:27;;;;;;;6.45;2.40;;;;;;;;;;5049843;28;20033;-77
2021/08/24 08:54:55;;;;;;;7.57;2.60;;;;;;;;;;5052933;28;20503;-78
2021/08/24 08:57:29;;;;;;;7.05;3.28;;;;;;;;;;5056729;28;20035;-77
2021/08/24 09:00:02;;;;;;;6.50;2.97;;;;;;;;;;5056569;28;20037;-77
2021/08/24 09:02:49;;;;;;;7.22;2.88;;;;;;;;;;5056325;28;20039;-80
2021/08/24 09:05:16;;;;;;;9.13;3.05;;;;;;;;;;5005439;28;20047;-78
2021/08/24 09:07:49;;;;;;;6.70;2.75;;;;;;;;;;5055831;28;20036;-78
2021/08/24 09:10:20;;;;;;;8.85;2.70;;;;;;;;;;5055982;28;20028;-77
2021/08/24 09:12:47;;;;;;;5.30;2.33;;;;;;;;;;5055756;28;20037;-79
2021/08/24 09:15:15;;;;;;;8.00;2.85;;;;;;;;;;5055868;28;20144;-79
2021/08/24 09:17:41;;;;;;;6.45;2.53;;;;;;;;;;5055066;28;20465;-77
2021/08/24 09:20:12;;;;;;;8.55;2.78;;;;;;;;;;5055764;28;20048;-78
2021/08/24 09:22:40;;;;;;;7.47;2.22;;;;;;;;;;5053291;28;20586;-80
2021/08/24 09:25:08;;;;;;;11.60;3.88;;;;;;;;;;5056964;28;20086;-78
2021/08/24 09:27:39;;;;;;;4.72;1.90;;;;;;;;;;5056018;28;20032;-78
2021/08/24 09:30:04;;;;;;;6.13;2.45;;;;;;;;;;5055560;28;20355;-77
2021/08/24 09:32:30;;;;;;;8.18;2.60;;;;;;;;;;5056205;28;20056;-78
2021/08/24 09:35:15;;;;;;;7.03;2.60;;;;;;;;;;5056268;28;20461;-78
2021/08/24 09:37:41;;;;;;;3.42;1.83;;;;;;;;;;5038614;28;20041;-78
2021/08/24 09:40:11;;;;;;;7.60;2.58;;;;;;;;;;5037621;28;20052;-79
2021/08/24 09:42:45;;;;;;;6.15;1.90;;;;;;;;;;5055790;28;20057;-79
2021/08/24 09:45:19;;;;;;;8.00;2.20;;;;;;;;;;5055986;28;20036;-78
2021/08/24 09:48:00;;;;;;;6.13;1.92;;;;;;;;;;5056484;28;20025;-79
2021/08/24 09:50:31;;;;;;;4.90;2.38;;;;;;;;;;5055551;28;20827;-77
2021/08/24 09:52:56;;;;;;;6.68;2.05;;;;;;;;;;5055686;28;20036;-77
2021/08/24 09:55:27;;;;;;;5.57;1.70;;;;;;;;;;5055690;28;20104;-77
2021/08/24 09:58:03;;;;;;;3.50;1.70;;;;;;;;;;5053324;28;20021;-76
2021/08/24 10:00:36;;;;;;;7.13;2.35;;;;;;;;;;5052078;28;20037;-76
2021/08/24 10:03:17;;;;;;;3.58;1.80;;;;;;;;;;5055220;28;20025;-76
2021/08/24 10:05:43;;;;;;;4.68;1.83;;;;;;;;;;5052696;28;20041;-76
2021/08/24 10:08:22;;;;;;;5.18;1.63;;;;;;;;;;5050950;28;20095;-76
2021/08/24 10:10:58;;;;;;;9.68;1.90;;;;;;;;;;5049029;28;20145;-76
2021/08/24 10:13:31;;;;;;;5.30;1.63;;;;;;;;;;5051363;28;20033;-76
2021/08/24 10:16:08;;;;;;;7.88;2.22;;;;;;;;;;5051618;28;20029;-79
2021/08/24 10:18:34;;;;;;;3.85;1.67;;;;;;;;;;5050055;28;20041;-78
2021/08/24 10:21:02;;;;;;;5.55;1.65;;;;;;;;;;5051537;28;20037;-79
2021/08/24 10:23:29;;;;;;;4.70;1.73;;;;;;;;;;5052037;28;20021;-77
2021/08/24 10:25:58;;;;;;;3.20;1.65;;;;;;;;;;5051921;28;20098;-76
2021/08/24 10:28:33;;;;;;;7.63;1.88;;;;;;;;;;5047507;28;20056;-77
2021/08/24 10:30:58;;;;;;;;;;;;;;;;;;5050939;28;20513;-79
2021/08/24 10:33:23;;;;;;;3.72;1.50;;;;;;;;;;5032759;28;20368;-79
2021/08/24 10:35:55;;;;;;;5.28;1.60;;;;;;;;;;5051179;28;20527;-79
2021/08/24 10:38:34;;;;;;;4.57;1.35;;;;;;;;;;5050901;28;20045;-79
2021/08/24 10:41:00;;;;;;;5.28;1.45;;;;;;;;;;5050922;28;20052;-79
2021/08/24 10:43:25;;;;;;;4.28;1.27;;;;;;;;;;5051080;28;20435;-79
2021/08/24 10:45:59;;;;;;;5.85;1.48;;;;;;;;;;5050398;28;20017;-79
2021/08/24 10:48:24;;;;;;;4.20;1.95;;;;;;;;;;5051184;28;20116;-79
2021/08/24 10:50:56;;;;;;;4.72;1.45;;;;;;;;;;5051044;28;20108;-78
2021/08/24 10:53:36;;;;;;;4.88;1.88;;;;;;;;;;5051737;28;20042;-78
2021/08/24 10:56:14;;;;;;;3.85;1.60;;;;;;;;;;5051242;28;20029;-78
2021/08/24 10:58:39;;;;;;;6.13;1.80;;;;;;;;;;5050736;28;20477;-77
2021/08/24 11:01:15;;;;;;;5.30;1.77;;;;;;;;;;5050146;28;20052;-77
2021/08/24 11:03:41;;;;;;;5.70;1.75;;;;;;;;;;5051141;28;20044;-77
2021/08/24 11:06:06;;;;;;;4.68;1.50;;;;;;;;;;5051013;28;20086;-78
2021/08/24 11:08:44;;;;;;;3.70;1.80;;;;;;;;;;5050566;28;20458;-80
2021/08/24 11:11:15;;;;;;;6.47;1.75;;;;;;;;;;5049291;28;20021;-78
2021/08/24 11:13:46;;;;;;;4.88;1.88;;;;;;;;;;5050576;28;20377;-79
2021/08/24 11:16:30;;;;;;;5.05;1.60;;;;;;;;;;5050170;28;20031;-78
2021/08/24 11:19:10;;;;;;;6.85;2.65;;;;;;;;;;5049912;28;20035;-77
2021/08/24 11:21:45;;;;;;;4.45;1.55;;;;;;;;;;5050643;28;20119;-78
2021/08/24 11:24:30;;;;;;;4.80;1.50;;;;;;;;;;5047942;28;20090;-79
2021/08/24 11:27:05;;;;;;;3.97;2.08;;;;;;;;;;5050680;28;20033;-78
2021/08/24 11:29:30;;;;;;;;;;;;;;;;;;5050410;28;20033;-78
2021/08/24 11:32:11;;;;;;;6.40;1.60;;;;;;;;;;5050463;28;19924;-77
2021/08/24 11:34:42;;;;;;;5.80;1.63;;;;;;;;;;5050601;28;20730;-77
2021/08/24 11:37:09;;;;;;;6.47;2.08;;;;;;;;;;5050456;28;20033;-78
2021/08/24 11:39:40;;;;;;;3.20;1.45;;;;;;;;;;5031761;28;20405;-78
2021/08/24 11:42:05;;;;;;;4.88;1.73;;;;;;;;;;5050598;28;20013;-77
2021/08/24 11:44:42;;;;;;;8.63;1.70;;;;;;;;;;5050300;28;20103;-77
2021/08/24 11:47:08;;;;;;;4.18;1.58;;;;;;;;;;5046794;28;20417;-77
2021/08/24 11:49:51;;;;;;;4.57;1.80;;;;;;;;;;5048858;28;20035;-77
2021/08/24 11:52:20;;;;;;;5.22;1.63;;;;;;;;;;5049682;28;20037;-77
2021/08/24 11:54:54;;;;;;;5.63;1.60;;;;;;;;;;5050260;28;20025;-77
2021/08/24 11:57:22;;;;;;;10.70;2.53;;;;;;;;;;5049753;28;20029;-78
2021/08/24 11:59:48;;;;;;;3.72;1.90;;;;;;;;;;5049849;28;20473;-76
2021/08/24 12:02:15;;;;;;;5.13;1.50;;;;;;;;;;5031909;28;20509;-78
2021/08/24 12:04:41;;;;;;;3.47;1.40;;;;;;;;;;5050174;28;20036;-77
2021/08/24 12:07:09;;;;;;;4.50;1.50;;;;;;;;;;5049758;28;20405;-77
2021/08/24 12:09:37;;;;;;;4.75;1.48;;;;;;;;;;5049929;28;20112;-77
2021/08/24 12:12:03;;;;;;;4.30;1.75;;;;;;;;;;5050247;28;20013;-77
2021/08/24 12:14:30;;;;;;;4.13;1.70;;;;;;;;;;5050259;28;20035;-79
2021/08/24 12:16:55;;;;;;;6.45;1.60;;;;;;;;;;5049844;28;20052;-77
2021/08/24 12:19:22;;;;;;;5.70;1.65;;;;;;;;;;5049203;28;20028;-77
2021/08/24 12:21:49;;;;;;;5.03;1.63;;;;;;;;;;5048637;28;20025;-77
2021/08/24 12:24:35;;;;;;;4.78;1.90;;;;;;;;;;5049200;28;20041;-77
2021/08/24 12:27:00;;;;;;;5.45;1.63;;;;;;;;;;5030713;28;20063;-78
2021/08/24 12:29:32;;;;;;;4.32;1.70;;;;;;;;;;5048442;28;20521;-78
2021/08/24 12:31:58;;;;;;;11.40;2.15;;;;;;;;;;5049462;28;20500;-77
2021/08/24 12:34:32;;;;;;;3.75;1.73;;;;;;;;;;5049855;28;20044;-77
2021/08/24 12:36:57;;;;;;;4.25;1.90;;;;;;;;;;5049642;28;20111;-79
2021/08/24 12:39:42;;;;;;;5.57;1.48;;;;;;;;;;5048836;28;20449;-77
2021/08/24 12:42:23;;;;;;;4.72;1.85;;;;;;;;;;5048935;28;21055;-77
2021/08/24 12:44:50;;;;;;;6.97;1.40;;;;;;;;;;5049643;28;20454;-77
2021/08/24 12:47:18;;;;;;;7.50;1.77;;;;;;;;;;5049453;28;20116;-78
2021/08/24 12:49:43;;;;;;;8.45;1.70;;;;;;;;;;5050446;28;20016;-77
2021/08/24 12:52:15;;;;;;;4.28;1.88;;;;;;;;;;5049503;28;20412;-78
2021/08/24 12:54:46;;;;;;;6.25;1.40;;;;;;;;;;5049351;28;20381;-77
2021/08/24 12:57:25;;;;;;;5.20;1.60;;;;;;;;;;5048802;28;20549;-77
2021/08/24 12:59:54;;;;;;;4.18;1.70;;;;;;;;;;5048494;28;20536;-77
2021/08/24 13:02:22;;;;;;;5.30;2.05;;;;;;;;;;5048669;28;20013;-78
2021/08/24 13:04:53;;;;;;;2.58;1.38;;;;;;;;;;5048676;28;20035;-77
2021/08/24 13:07:33;;;;;;;3.85;1.52;;;;;;;;;;5048488;28;20025;-78
2021/08/24 13:10:08;;;;;;;4.13;1.38;;;;;;;;;;5049419;28;20104;-77
2021/08/24 13:12:37;;;;;;;6.00;1.55;;;;;;;;;;5048649;28;20025;-79
2021/08/24 13:15:05;;;;;;;3.38;1.55;;;;;;;;;;5049338;28;20028;-77
2021/08/24 13:17:47;;;;;;;3.45;1.50;;;;;;;;;;5046691;28;20025;-78
2021/08/24 13:20:41;;;;;;;3.13;1.30;;;;;;;;;;5045925;28;20116;-77
2021/08/24 13:23:06;;;;;;;4.13;1.83;;;;;;;;;;5032206;28;20067;-78
2021/08/24 13:25:33;;;;;;;4.10;2.05;;;;;;;;;;5048418;28;20052;-78
2021/08/24 13:28:01;;;;;;;6.93;2.03;;;;;;;;;;5048243;28;20362;-79
2021/08/24 13:30:28;;;;;;;6.93;1.88;;;;;;;;;;5045471;28;20025;-78
2021/08/24 13:32:56;;;;;;;5.00;1.70;;;;;;;;;;5048684;28;20036;-77
2021/08/24 13:35:24;;;;;;;5.35;1.70;;;;;;;;;;5044938;28;20091;-78
2021/08/24 13:37:50;;;;;;;4.28;2.10;;;;;;;;;;5048986;28;20108;-77
2021/08/24 13:40:26;;;;;;;4.38;2.03;;;;;;;;;;5049480;28;20083;-78
2021/08/24 13:42:52;;;;;;;4.13;1.50;;;;;;;;;;5052160;28;20041;-78
2021/08/24 13:45:28;;;;;;;5.43;1.70;;;;;;;;;;5053083;28;20033;-77
2021/08/24 13:47:55;;;;;;;5.80;1.77;;;;;;;;;;5051850;28;20029;-78
2021/08/24 13:50:30;;;;;;;5.32;1.83;;;;;;;;;;5051630;28;20397;-78
2021/08/24 13:53:01;;;;;;;6.50;1.63;;;;;;;;;;5050449;28;20037;-77
2021/08/24 13:55:28;;;;;;;3.60;1.60;;;;;;;;;;5052142;28;20497;-77
2021/08/24 13:57:53;;;;;;;3.80;1.83;;;;;;;;;;5052738;28;20112;-77
2021/08/24 14:00:21;;;;;;;4.70;1.65;;;;;;;;;;5052172;28;20124;-78
2021/08/24 14:02:49;;;;;;;5.15;1.60;;;;;;;;;;5052119;28;20029;-80
2021/08/24 14:05:19;;;;;;;6.03;1.73;;;;;;;;;;5051887;28;20047;-77
2021/08/24 14:07:50;;;;;;;5.10;1.65;;;;;;;;;;5051829;28;20052;-78
2021/08/24 14:10:22;;;;;;;4.28;1.75;;;;;;;;;;5051646;28;20432;-78
2021/08/24 14:13:01;;;;;;;5.47;1.73;;;;;;;;;;5051923;28;20032;-77
2021/08/24 14:15:26;;;;;;;2.97;1.55;;;;;;;;;;5051891;28;20032;-77
2021/08/24 14:18:02;;;;;;;2.75;1.48;;;;;;;;;;5051352;28;20119;-78
2021/08/24 14:20:46;;;;;;;3.38;1.80;;;;;;;;;;5051667;28;20037;-78
2021/08/24 14:23:16;;;;;;;6.30;1.65;;;;;;;;;;5050889;28;20032;-78
2021/08/24 14:25:46;;;;;;;4.53;1.90;;;;;;;;;;5051472;28;20025;-78
2021/08/24 14:28:14;;;;;;;6.28;1.70;;;;;;;;;;5051480;28;20075;-78
2021/08/24 14:30:41;;;;;;;3.92;1.60;;;;;;;;;;5052273;28;20053;-77
2021/08/24 14:33:14;;;;;;;3.75;1.63;;;;;;;;;;5050872;28;20810;-77
2021/08/24 14:35:48;;;;;;;5.07;1.70;;;;;;;;;;5051763;28;20040;-77
2021/08/24 14:38:41;;;;;;;4.57;1.60;;;;;;;;;;5051790;28;20413;-78
2021/08/24 14:41:08;;;;;;;3.58;1.85;;;;;;;;;;5046219;28;20044;-77